Wednesday, October 22, 2014
00:07 UTC
  |  Log In   |  Register Free
Airport Search:

Coffeyville Municipal Airport
(KCFV)

Coffeyville Municipal Airport Diagram
No Airport Diagram Available

FAA data valid effective September 18, 2014 - November 13, 2014 (unless otherwise noted).

 
 
 
 
 
 
 
 
 
 
 
 
 
 

Current Aviation Weather for Coffeyville Municipal Airport (KCFV)

The most recent METAR observation for KCFV was updated at: 2308
METAR Summary (Translated METAR)
KCFV
212252Z AUTO 11005KT 10SM CLR 24/13 A3003 RMK AO2 SLP167 T02390133
KIDP
212255Z AUTO 16004KT 1SM HZ VV007 22/13 A3003 RMK AO2
(10.6 nm NW from KCFV)
KPPF
212252Z AUTO 00000KT 10SM CLR 24/14 A3005 RMK AO2 SLP172 T02390139
(14.6 nm NE from KCFV)
TAF
No TAF information found within 50 nm of KCFV
  Airport Weather Conditions for KCFV

 Current Weather at CFV
75° F
Fair
East winds at 5.8 mph
CFV NOAA Radar

Pressure: 30.03 in
Humidity: 52%
Wind: East at 5.8 MPH (5 KT)
Dew Point: 55.9°F
Visibility: 10.00 mi


Airport Weather Forecast for KCFV

Translated METAR and TAF for KCFV
Translated METAR for KCFV (0002 UTC 22 October 2014)
found at http://aviationweather.gov/adds/metars/
 
METAR text: KCFV 212352Z AUTO 10004KT 10SM CLR 21/14 A3004 RMK AO2 SLP169 T02110139 10261 20211 55003
Conditions at: KCFV (COFFEYVILLE , KS, US) observed 2352 UTC 21 October 2014
Temperature: 21.1°C (70°F)
Dewpoint: 13.9°C (57°F) [RH = 63%]
Pressure (altimeter): 30.04 inches Hg (1017.4 mb)
[Sea-level pressure: 1016.9 mb]
Winds: from the E (100 degrees) at 5 MPH (4 knots; 2.1 m/s)
Visibility: 10 or more miles (16+ km)
Ceiling: at least 12,000 feet AGL
Clouds: sky clear below 12,000 feet AGL
Weather: automated observation with no human augmentation;
there may or may not be significant weather present at this time
Translated TAF for KCFV

There is no translated TAF available for this airport

Find All Airport Services Find A Hotel Find A Rental Car Find A Golf Course Find A Restaurant $100 Hamburger



FBO's on the Field
FBO Company Facility Photos Services Transportation Aviation Fuel Prices: Prices include tax
Catering Weather Repair Courtesy Rental Type 100LL JetA JetA+ MOGAS 8087
 
Coffeyville Aircraft, Inc

This FBO has not yet been rated
FS: Phillips 66
Last Updated: Sep-26
Login to update fuel prices
SS:
Contact Coffeyville Aircraft, IncMore FBO Information
 
Add another FBO Facility Photos Catering Weather Repair Courtesy Rental Type 100LL JetA JetA+ MOGAS 8087
Services Transportation Aviation Fuel Prices: Prices include tax


model-print
model-print
model-print
model-print